Time;durP1;ratioP1;P1;durP2;ratioP2;P2;SDS_P1;SDS_P2;PMS_P1;PMS_P2;Temp;Humidity;BMP_temperature;BMP_pressure;BME280_temperature;BME280_humidity;BME280_pressure;Samples;Min_cycle;Max_cycle;Signal;HPM_P1;HPM_P2
2021/09/30 00:00:28;;;;;;;5.18;2.10;;;12.60;95.10;;;;;;4991220;28;20038;-69
2021/09/30 00:02:54;;;;;;;8.80;2.63;;;12.60;95.10;;;;;;4991258;28;20038;-69
2021/09/30 00:05:19;;;;;;;4.65;2.55;;;12.50;95.20;;;;;;4991120;28;20034;-70
2021/09/30 00:07:45;;;;;;;8.48;1.88;;;12.60;95.20;;;;;;4990932;28;20042;-69
2021/09/30 00:10:16;;;;;;;10.38;2.40;;;12.50;95.30;;;;;;4991042;28;20043;-69
2021/09/30 00:12:47;;;;;;;6.53;2.10;;;12.50;95.00;;;;;;4995296;28;20026;-69
2021/09/30 00:15:18;;;;;;;5.95;2.25;;;12.50;95.10;;;;;;4994724;28;20058;-69
2021/09/30 00:17:59;;;;;;;4.30;1.60;;;12.50;95.10;;;;;;4994631;28;20031;-70
2021/09/30 00:34:20;;;;;;;6.72;1.83;;;12.40;94.70;;;;;;4994286;28;20038;-70
2021/09/30 01:18:50;;;;;;;5.88;1.75;;;12.40;94.50;;;;;;4993438;28;20092;-70
2021/09/30 01:22:34;;;;;;;4.43;1.33;;;12.40;94.50;;;;;;4992847;28;20092;-68
2021/09/30 02:27:21;;;;;;;7.55;1.85;;;12.40;94.20;;;;;;4953558;28;20109;-69
2021/09/30 02:30:07;;;;;;;7.03;1.80;;;12.40;94.10;;;;;;4953631;28;20067;-70
2021/09/30 03:01:09;;;;;;;7.55;1.75;;;12.30;94.10;;;;;;4931757;29;20360;-68
2021/09/30 03:03:37;;;;;;;6.65;1.60;;;12.40;94.10;;;;;;4951177;28;20047;-69
2021/09/30 03:06:06;;;;;;;;;;;12.40;94.10;;;;;;4953606;28;20053;-69
2021/09/30 03:08:37;;;;;;;6.05;1.90;;;12.30;94.10;;;;;;4952084;28;19921;-69
2021/09/30 03:11:03;;;;;;;8.45;1.75;;;12.20;94.10;;;;;;4952790;28;20039;-69
2021/09/30 03:13:31;;;;;;;4.57;1.90;;;12.30;94.10;;;;;;4952941;28;20086;-70
2021/09/30 03:16:02;;;;;;;7.38;1.95;;;12.30;94.10;;;;;;4953350;28;20033;-70
2021/09/30 03:18:55;;;;;;;5.90;2.17;;;12.30;94.10;;;;;;4952897;28;20079;-70
2021/09/30 03:23:45;;;;;;;8.27;1.60;;;12.10;94.10;;;;;;4952867;28;20035;-70
2021/09/30 03:26:12;;;;;;;6.97;2.38;;;12.20;94.10;;;;;;4952615;28;20039;-70
2021/09/30 03:28:39;;;;;;;9.20;2.28;;;12.10;94.10;;;;;;4952740;28;20087;-70
2021/09/30 03:31:05;;;;;;;9.60;1.48;;;12.10;94.10;;;;;;4952846;28;20032;-70
2021/09/30 03:33:31;;;;;;;6.93;2.38;;;12.20;94.20;;;;;;4952056;29;20351;-70
2021/09/30 03:35:57;;;;;;;9.02;2.65;;;12.20;94.10;;;;;;4952677;28;20027;-71
2021/09/30 03:38:23;;;;;;;7.95;1.60;;;12.10;94.10;;;;;;4952774;28;20031;-70
2021/09/30 03:40:49;;;;;;;5.07;2.25;;;12.10;94.10;;;;;;4952784;28;20114;-70
2021/09/30 03:43:15;;;;;;;4.70;1.77;;;12.10;94.20;;;;;;4952859;28;20415;-70
2021/09/30 03:45:41;;;;;;;7.25;2.20;;;12.00;94.30;;;;;;4955165;28;20062;-70
2021/09/30 03:48:08;;;;;;;4.47;1.75;;;12.00;94.30;;;;;;4956531;28;20029;-70
2021/09/30 03:51:21;;;;;;;4.05;2.10;;;12.00;94.40;;;;;;4956336;28;20451;-70
2021/09/30 03:53:44;;;;;;;6.75;2.13;;;12.00;94.60;;;;;;4953331;28;20035;-71
2021/09/30 03:56:31;;;;;;;5.97;1.80;;;12.00;94.30;;;;;;4956457;28;20035;-70
2021/09/30 04:02:01;;;;;;;8.45;2.03;;;12.00;94.40;;;;;;4965157;28;20024;-70
2021/09/30 04:04:37;;;;;;;3.15;1.80;;;12.00;94.40;;;;;;4956168;28;20047;-70
2021/09/30 04:07:07;;;;;;;6.57;2.03;;;11.90;94.40;;;;;;4956798;28;20019;-70
2021/09/30 04:09:35;;;;;;;8.43;2.60;;;11.90;94.40;;;;;;4975220;28;20505;-70
2021/09/30 04:12:07;;;;;;;10.38;2.20;;;11.90;94.50;;;;;;4959494;28;20028;-70
2021/09/30 04:14:33;;;;;;;9.52;1.98;;;11.80;94.40;;;;;;4955770;28;20035;-71
2021/09/30 04:16:59;;;;;;;6.95;2.70;;;11.90;94.60;;;;;;4955845;28;20031;-70
2021/09/30 04:19:25;;;;;;;8.15;2.78;;;11.80;94.50;;;;;;4955904;28;20480;-70
2021/09/30 04:21:53;;;;;;;6.00;2.50;;;11.80;94.70;;;;;;4956283;28;20076;-69
2021/09/30 04:24:20;;;;;;;3.97;2.38;;;11.80;94.70;;;;;;4955783;28;20032;-70
2021/09/30 04:26:47;;;;;;;7.22;2.40;;;11.80;94.60;;;;;;4968151;28;20039;-70
2021/09/30 04:29:13;;;;;;;10.18;2.88;;;11.80;94.70;;;;;;4965792;28;20042;-70
2021/09/30 04:31:39;;;;;;;9.35;2.80;;;11.70;94.60;;;;;;4955565;28;20038;-69
2021/09/30 04:34:06;;;;;;;6.15;2.50;;;11.70;94.60;;;;;;4955504;28;20141;-69
2021/09/30 04:36:32;;;;;;;8.80;2.58;;;11.80;94.60;;;;;;4955999;28;20026;-69
2021/09/30 04:38:57;;;;;;;7.85;2.55;;;11.80;94.60;;;;;;4970567;28;20361;-69
2021/09/30 04:41:23;;;;;;;6.35;2.10;;;11.80;94.50;;;;;;4964308;28;20120;-69
2021/09/30 04:43:49;;;;;;;6.10;2.30;;;11.80;94.60;;;;;;4955590;28;20039;-70
2021/09/30 04:46:16;;;;;;;5.88;2.50;;;11.80;94.50;;;;;;4955466;28;20035;-69
2021/09/30 04:48:43;;;;;;;12.37;2.87;;;11.80;94.60;;;;;;4955603;28;20584;-69
2021/09/30 04:51:09;;;;;;;9.75;3.10;;;11.70;94.80;;;;;;4955374;28;20035;-70
2021/09/30 04:53:36;;;;;;;13.93;2.78;;;11.70;94.80;;;;;;4955299;28;20047;-70
2021/09/30 04:56:02;;;;;;;9.68;3.28;;;11.70;94.80;;;;;;4954672;28;20028;-70
2021/09/30 04:58:28;;;;;;;6.25;2.33;;;11.70;94.70;;;;;;4954762;28;20031;-70
2021/09/30 05:00:53;;;;;;;8.88;2.75;;;11.70;94.80;;;;;;4955620;28;20019;-71
2021/09/30 05:03:19;;;;;;;11.65;3.22;;;11.70;94.70;;;;;;4954991;28;20065;-70
2021/09/30 05:05:45;;;;;;;5.82;2.30;;;11.70;94.70;;;;;;4967593;28;20500;-70
2021/09/30 05:08:11;;;;;;;5.00;2.78;;;11.70;94.70;;;;;;4965412;28;20452;-71
2021/09/30 05:10:38;;;;;;;13.60;3.47;;;11.70;94.70;;;;;;4954649;28;20390;-70
2021/09/30 05:13:12;;;;;;;12.83;2.87;;;11.80;94.90;;;;;;4954144;29;20029;-70
2021/09/30 05:15:38;;;;;;;8.63;3.05;;;11.80;95.00;;;;;;4974342;28;20751;-71
2021/09/30 05:18:05;;;;;;;4.28;2.30;;;11.80;94.80;;;;;;4958025;28;20027;-70
2021/09/30 05:20:31;;;;;;;5.78;2.70;;;11.80;94.80;;;;;;4954674;28;20028;-70
2021/09/30 05:22:56;;;;;;;6.97;2.85;;;11.80;94.80;;;;;;4960632;28;20057;-71
2021/09/30 05:25:22;;;;;;;7.20;3.05;;;11.70;94.90;;;;;;4971408;28;20045;-70
2021/09/30 05:27:48;;;;;;;5.28;2.70;;;11.80;95.10;;;;;;4955093;28;20050;-69
2021/09/30 05:30:14;;;;;;;7.72;3.38;;;11.80;94.90;;;;;;4954539;28;20031;-70
2021/09/30 05:32:40;;;;;;;8.00;2.75;;;11.80;95.10;;;;;;4954348;28;20039;-71
2021/09/30 05:35:07;;;;;;;6.80;3.00;;;11.90;95.00;;;;;;4954213;28;20053;-70
2021/09/30 05:37:33;;;;;;;5.93;2.97;;;11.80;94.90;;;;;;4954430;28;20047;-70
2021/09/30 05:39:59;;;;;;;10.93;3.45;;;11.90;95.20;;;;;;4954845;28;20039;-68
2021/09/30 05:42:25;;;;;;;4.25;2.80;;;11.90;94.90;;;;;;4954350;28;20433;-68
2021/09/30 05:44:51;;;;;;;8.68;3.10;;;12.00;94.90;;;;;;4968422;28;20097;-69
2021/09/30 05:47:18;;;;;;;5.32;2.85;;;12.00;95.10;;;;;;4963684;28;20469;-69
2021/09/30 05:49:43;;;;;;;9.15;2.95;;;12.00;94.80;;;;;;4954289;28;20035;-68
2021/09/30 05:52:09;;;;;;;13.30;4.40;;;12.00;95.00;;;;;;4954080;28;20043;-68
2021/09/30 05:54:35;;;;;;;4.85;3.15;;;12.00;94.80;;;;;;4954367;28;20653;-68
2021/09/30 05:57:01;;;;;;;5.78;3.22;;;12.00;94.80;;;;;;4953805;28;20114;-68
2021/09/30 05:59:26;;;;;;;8.88;4.25;;;11.90;94.90;;;;;;4952731;29;20055;-69
2021/09/30 06:12:13;;;;;;;8.52;4.15;;;12.10;94.90;;;;;;4992507;28;20027;-71
2021/09/30 06:14:41;;;;;;;7.28;3.80;;;12.10;94.80;;;;;;4992191;28;20094;-71
2021/09/30 06:17:08;;;;;;;10.25;3.88;;;12.10;94.90;;;;;;4992293;28;20695;-71
2021/09/30 06:19:34;;;;;;;8.68;4.07;;;12.20;95.10;;;;;;4992668;28;20038;-70
2021/09/30 06:22:04;;;;;;;11.10;3.50;;;12.20;94.80;;;;;;4992597;28;20451;-71
2021/09/30 06:24:30;;;;;;;9.77;4.20;;;12.20;94.90;;;;;;4992001;28;20042;-71
2021/09/30 06:26:56;;;;;;;9.38;4.28;;;12.30;94.90;;;;;;4992031;28;20038;-71
2021/09/30 06:29:21;;;;;;;13.43;3.28;;;12.30;94.70;;;;;;4992054;28;20405;-71
2021/09/30 06:31:47;;;;;;;11.23;3.80;;;12.30;94.50;;;;;;4992159;28;20572;-71
2021/09/30 06:34:13;;;;;;;8.98;3.38;;;12.40;94.60;;;;;;4991676;28;20037;-71
2021/09/30 06:36:39;;;;;;;11.60;3.63;;;12.40;94.50;;;;;;4992072;28;20034;-71
2021/09/30 06:39:05;;;;;;;5.10;3.05;;;12.40;94.30;;;;;;4991785;28;20465;-71
2021/09/30 06:41:30;;;;;;;10.27;3.22;;;12.40;94.30;;;;;;4992209;28;20058;-71
2021/09/30 06:43:56;;;;;;;8.05;3.47;;;12.40;94.20;;;;;;4991833;28;20039;-71
2021/09/30 06:46:23;;;;;;;5.38;3.28;;;12.50;94.50;;;;;;4990668;28;20456;-68
2021/09/30 06:48:48;;;;;;;11.05;3.60;;;12.50;94.40;;;;;;4992314;28;20109;-68
2021/09/30 06:51:14;;;;;;;6.82;3.33;;;12.40;94.20;;;;;;4990436;28;20117;-68
2021/09/30 06:53:40;;;;;;;8.82;3.60;;;12.40;94.30;;;;;;4991737;28;20046;-69
2021/09/30 06:56:08;;;;;;;6.10;3.17;;;12.50;94.30;;;;;;4991670;28;20057;-68
2021/09/30 06:58:43;;;;;;;8.45;3.50;;;12.40;94.30;;;;;;4991667;28;20382;-67
2021/09/30 07:01:09;;;;;;;8.85;3.85;;;12.50;94.40;;;;;;4991161;28;20046;-67
2021/09/30 07:03:35;;;;;;;15.00;3.83;;;12.50;94.30;;;;;;4972703;28;20030;-68
2021/09/30 07:06:00;;;;;;;15.32;3.70;;;12.60;94.30;;;;;;4987705;28;20457;-68
2021/09/30 07:08:26;;;;;;;8.23;3.45;;;12.60;94.40;;;;;;4990558;28;20038;-68
2021/09/30 07:10:51;;;;;;;14.35;4.50;;;12.60;94.30;;;;;;4991242;28;20046;-67
2021/09/30 07:13:17;;;;;;;7.80;3.88;;;12.60;94.30;;;;;;4991371;28;20026;-67
2021/09/30 07:15:43;;;;;;;10.50;3.75;;;12.60;94.30;;;;;;4991882;28;20039;-67
2021/09/30 07:18:13;;;;;;;12.98;3.45;;;12.70;94.30;;;;;;4991576;28;20034;-67
2021/09/30 07:20:40;;;;;;;8.65;4.32;;;12.70;94.40;;;;;;4995818;28;20508;-69
2021/09/30 07:23:06;;;;;;;8.02;3.80;;;12.80;94.40;;;;;;4997658;28;20034;-67
2021/09/30 07:25:31;;;;;;;10.27;4.15;;;12.80;94.40;;;;;;4997594;28;20054;-68
2021/09/30 07:27:57;;;;;;;14.60;4.05;;;12.80;94.30;;;;;;4998014;28;20022;-68
2021/09/30 07:30:23;;;;;;;9.35;4.10;;;12.90;94.30;;;;;;4998044;28;20031;-68
2021/09/30 07:32:48;;;;;;;9.77;3.78;;;13.00;94.30;;;;;;4997772;28;20042;-68
2021/09/30 07:35:14;;;;;;;10.35;4.60;;;13.00;94.30;;;;;;4998052;28;20046;-69
2021/09/30 07:37:39;;;;;;;9.52;3.85;;;13.10;94.20;;;;;;4997808;28;20097;-68
2021/09/30 07:40:05;;;;;;;11.30;4.22;;;13.10;94.10;;;;;;4997729;28;20088;-69
2021/09/30 07:42:31;;;;;;;10.88;4.35;;;13.10;94.00;;;;;;4998047;28;20092;-69
2021/09/30 07:44:57;;;;;;;16.30;4.93;;;13.00;93.90;;;;;;4997819;28;20039;-68
2021/09/30 07:47:24;;;;;;;8.82;4.40;;;13.00;93.90;;;;;;4997693;28;20041;-68
2021/09/30 07:49:49;;;;;;;9.82;4.63;;;13.10;93.90;;;;;;4997512;28;20563;-69
2021/09/30 07:52:15;;;;;;;11.32;4.88;;;13.10;93.90;;;;;;4997545;28;20109;-69
2021/09/30 07:54:41;;;;;;;13.05;4.38;;;13.20;93.70;;;;;;4997502;28;20023;-70
2021/09/30 07:57:07;;;;;;;9.20;4.22;;;13.10;93.70;;;;;;4997484;28;20034;-70
2021/09/30 07:59:32;;;;;;;10.13;3.90;;;13.20;93.70;;;;;;4997231;28;20037;-70
2021/09/30 08:01:58;;;;;;;9.52;3.80;;;13.30;93.60;;;;;;4997273;28;20423;-69
2021/09/30 08:04:23;;;;;;;8.73;4.28;;;13.40;93.60;;;;;;4995717;28;20042;-69
2021/09/30 08:06:49;;;;;;;14.93;3.97;;;13.40;93.40;;;;;;4997765;28;20046;-69
2021/09/30 08:09:15;;;;;;;10.35;3.67;;;13.40;93.30;;;;;;4996404;28;20030;-70
2021/09/30 08:11:40;;;;;;;14.88;4.13;;;13.40;93.50;;;;;;4995817;28;20042;-70
2021/09/30 08:14:06;;;;;;;8.95;3.55;;;13.50;93.20;;;;;;4997194;28;20062;-70
2021/09/30 08:16:32;;;;;;;8.90;3.25;;;13.60;93.30;;;;;;4997356;28;20045;-70
2021/09/30 08:18:58;;;;;;;11.65;3.35;;;13.70;93.20;;;;;;4997657;28;20053;-70
2021/09/30 08:21:27;;;;;;;5.35;2.78;;;13.80;93.10;;;;;;4997451;28;20378;-69
2021/09/30 08:23:52;;;;;;;6.43;2.83;;;13.90;93.10;;;;;;4997318;28;20042;-70
2021/09/30 08:26:23;;;;;;;9.52;2.53;;;13.90;92.80;;;;;;4997442;28;20531;-70
2021/09/30 08:28:51;;;;;;;6.35;2.40;;;13.90;92.50;;;;;;4996351;28;20039;-70
2021/09/30 08:31:19;;;;;;;8.25;2.60;;;14.00;92.60;;;;;;4994955;28;20113;-70
2021/09/30 08:33:45;;;;;;;4.60;2.03;;;14.00;92.60;;;;;;4994385;28;20030;-70
2021/09/30 08:36:13;;;;;;;15.27;2.92;;;14.20;92.40;;;;;;4994226;28;20033;-70
2021/09/30 08:38:41;;;;;;;9.52;2.92;;;14.20;92.40;;;;;;4993902;28;20030;-70
2021/09/30 08:41:07;;;;;;;8.15;2.90;;;14.40;92.30;;;;;;4994146;28;20066;-69
2021/09/30 08:43:33;;;;;;;8.07;2.78;;;14.40;92.10;;;;;;4994129;28;20034;-70
2021/09/30 08:45:59;;;;;;;10.23;2.60;;;14.60;92.00;;;;;;4994205;28;20030;-70
2021/09/30 08:48:25;;;;;;;11.23;2.15;;;14.80;91.80;;;;;;4994113;28;20044;-70
2021/09/30 08:50:51;;;;;;;9.73;2.10;;;15.30;91.60;;;;;;4993715;28;20049;-70
2021/09/30 08:53:17;;;;;;;7.60;2.33;;;15.60;90.80;;;;;;4993964;28;20088;-70
2021/09/30 08:55:43;;;;;;;5.88;2.30;;;16.40;90.80;;;;;;4993815;28;20076;-69
2021/09/30 08:58:09;;;;;;;9.93;2.47;;;16.90;90.60;;;;;;4993743;28;20058;-70
2021/09/30 09:00:39;;;;;;;5.88;1.75;;;17.70;88.70;;;;;;4994057;28;20097;-69
2021/09/30 09:03:04;;;;;;;8.02;2.08;;;18.00;86.10;;;;;;4992419;28;20476;-70
2021/09/30 09:05:30;;;;;;;12.55;2.53;;;18.80;86.60;;;;;;4993709;28;20046;-69
2021/09/30 09:07:57;;;;;;;7.55;1.75;;;19.40;84.40;;;;;;4992388;28;20129;-69
2021/09/30 09:10:25;;;;;;;9.57;1.88;;;19.50;82.90;;;;;;4993395;28;20061;-69
2021/09/30 09:13:04;;;;;;;;;;;20.20;83.00;;;;;;4994520;28;20034;-69
2021/09/30 09:15:47;;;;;;;10.43;2.13;;;20.30;79.80;;;;;;4993669;28;20383;-67
2021/09/30 09:18:29;;;;;;;8.77;1.58;;;20.60;77.90;;;;;;4993612;28;20420;-66
2021/09/30 09:21:07;;;;;;;10.23;1.75;;;21.00;78.80;;;;;;4993394;28;20026;-68
2021/09/30 09:23:39;;;;;;;8.85;1.90;;;21.10;76.20;;;;;;4993532;28;20030;-69
2021/09/30 09:26:13;;;;;;;9.07;2.00;;;21.40;74.70;;;;;;4993070;28;20042;-69
2021/09/30 09:28:59;;;;;;;7.57;1.70;;;21.70;75.20;;;;;;4993359;28;20065;-69
2021/09/30 09:31:33;;;;;;;7.45;1.90;;;22.40;72.30;;;;;;4993517;28;20035;-69
2021/09/30 09:34:15;;;;;;;11.00;2.08;;;22.70;71.20;;;;;;4993568;28;20109;-69
2021/09/30 09:36:41;;;;;;;8.63;1.98;;;23.50;69.00;;;;;;4993154;28;20089;-68
2021/09/30 09:39:07;;;;;;;13.73;1.83;;;23.70;66.90;;;;;;4992985;28;20561;-69
2021/09/30 09:41:35;;;;;;;5.85;1.50;;;24.50;65.80;;;;;;4992907;28;20122;-71
2021/09/30 09:44:02;;;;;;;8.05;1.58;;;24.30;62.80;;;;;;4992304;28;20065;-68
2021/09/30 09:46:37;;;;;;;6.75;1.52;;;24.30;64.00;;;;;;4992793;28;20471;-67
2021/09/30 09:49:18;;;;;;;6.85;1.42;;;24.20;62.20;;;;;;4992995;28;20475;-69
2021/09/30 09:51:48;;;;;;;7.40;1.75;;;24.10;63.30;;;;;;4992787;28;20042;-68
2021/09/30 09:54:14;;;;;;;8.70;2.00;;;24.60;61.50;;;;;;4991430;28;20031;-68
2021/09/30 09:56:41;;;;;;;7.35;1.80;;;24.90;60.70;;;;;;4992740;28;20463;-68
2021/09/30 09:59:07;;;;;;;6.20;1.47;;;24.80;60.70;;;;;;4992550;28;20498;-66
2021/09/30 10:01:45;;;;;;;4.63;1.40;;;24.60;59.70;;;;;;4992365;28;20034;-68
2021/09/30 10:04:13;;;;;;;6.43;1.80;;;24.40;59.30;;;;;;4992107;28;20026;-68
2021/09/30 10:06:39;;;;;;;;;;;23.00;60.00;;;;;;4993020;28;20114;-68
2021/09/30 10:09:06;;;;;;;5.45;1.70;;;23.90;61.10;;;;;;4992173;28;19924;-68
2021/09/30 10:11:33;;;;;;;8.18;1.67;;;24.20;58.30;;;;;;4991840;28;20038;-67
2021/09/30 10:14:02;;;;;;;5.72;1.52;;;24.40;59.30;;;;;;4991951;28;20049;-67
2021/09/30 10:16:28;;;;;;;8.70;1.50;;;23.90;59.40;;;;;;4992212;28;20454;-67
2021/09/30 10:19:04;;;;;;;5.32;1.38;;;23.90;58.80;;;;;;4992450;28;20042;-67
2021/09/30 10:21:31;;;;;;;11.55;1.52;;;22.70;58.90;;;;;;4992220;28;20393;-67
2021/09/30 10:24:05;;;;;;;4.53;1.47;;;23.30;60.30;;;;;;4992019;28;20378;-67
2021/09/30 10:26:38;;;;;;;15.75;8.85;;;23.30;59.00;;;;;;4991935;28;20049;-67
2021/09/30 10:29:04;;;;;;;6.70;1.48;;;23.60;59.00;;;;;;4992104;28;20110;-67
2021/09/30 10:31:36;;;;;;;5.38;1.10;;;24.10;58.30;;;;;;4991717;28;20529;-68
2021/09/30 10:34:05;;;;;;;4.75;1.40;;;24.50;58.00;;;;;;4992596;28;20022;-68
2021/09/30 10:36:38;;;;;;;8.90;1.33;;;24.40;57.80;;;;;;4992073;28;20054;-68
2021/09/30 10:39:15;;;;;;;7.75;1.80;;;24.10;58.10;;;;;;4991717;28;20026;-67
2021/09/30 10:41:40;;;;;;;6.75;1.50;;;24.20;56.80;;;;;;4990564;28;20097;-69
2021/09/30 10:44:18;;;;;;;7.15;1.98;;;24.10;56.00;;;;;;4991861;28;20035;-68
2021/09/30 10:46:52;;;;;;;6.72;1.33;;;23.70;56.30;;;;;;4991885;28;20045;-67
2021/09/30 10:49:36;;;;;;;5.47;1.38;;;22.80;57.00;;;;;;4991629;28;20334;-67
2021/09/30 10:52:17;;;;;;;9.38;1.38;;;21.90;58.70;;;;;;4991998;28;20445;-68
2021/09/30 10:54:48;;;;;;;5.72;1.20;;;21.00;60.30;;;;;;4990860;28;20141;-68
2021/09/30 10:57:32;;;;;;;7.90;1.33;;;21.60;61.10;;;;;;4991692;28;20125;-68
2021/09/30 10:59:58;;;;;;;5.05;1.42;;;22.40;60.00;;;;;;4991435;28;20026;-68
2021/09/30 11:02:23;;;;;;;8.00;1.38;;;22.70;59.60;;;;;;4991749;28;20427;-69
2021/09/30 11:05:05;;;;;;;13.18;2.00;;;23.60;58.80;;;;;;4991664;28;20528;-68
2021/09/30 11:07:31;;;;;;;5.70;1.67;;;23.70;57.40;;;;;;4991419;28;20065;-69
2021/09/30 11:10:19;;;;;;;9.18;1.27;;;23.80;57.30;;;;;;4991586;28;20054;-69
2021/09/30 11:13:17;;;;;;;5.45;1.20;;;22.70;57.00;;;;;;4990444;28;20042;-69
2021/09/30 11:16:07;;;;;;;5.45;1.42;;;23.20;57.20;;;;;;4991082;28;20089;-70
2021/09/30 11:18:42;;;;;;;10.00;1.52;;;23.50;57.00;;;;;;4991474;28;20030;-71
2021/09/30 11:21:33;;;;;;;6.15;1.35;;;23.20;56.90;;;;;;4991153;28;20142;-71
2021/09/30 11:24:01;;;;;;;4.00;1.40;;;22.60;57.60;;;;;;4991270;28;20034;-70
2021/09/30 11:26:32;;;;;;;4.47;1.00;;;21.90;58.90;;;;;;4991175;28;20144;-70
2021/09/30 11:29:33;;;;;;;8.80;1.10;;;21.40;59.60;;;;;;4991585;28;20081;-70
2021/09/30 11:31:59;;;;;;;7.93;1.60;;;20.40;60.60;;;;;;4989164;28;20110;-70
2021/09/30 11:34:36;;;;;;;12.93;1.88;;;20.70;61.10;;;;;;4991103;28;20250;-70
2021/09/30 11:37:17;;;;;;;4.43;1.20;;;20.60;60.70;;;;;;4991954;28;20030;-70
2021/09/30 11:39:49;;;;;;;6.75;1.45;;;20.80;60.20;;;;;;4991402;28;20048;-70
2021/09/30 11:42:20;;;;;;;4.50;1.10;;;21.00;60.20;;;;;;4991140;28;20041;-70
2021/09/30 11:45:03;;;;;;;6.18;1.50;;;20.30;60.40;;;;;;4991174;28;20034;-70
2021/09/30 11:47:30;;;;;;;8.40;1.63;;;20.70;60.40;;;;;;4991080;28;20037;-70
2021/09/30 11:49:57;;;;;;;11.35;4.07;;;20.80;60.30;;;;;;4991126;28;20373;-70
2021/09/30 11:52:23;;;;;;;10.52;1.52;;;20.90;60.20;;;;;;4990972;28;20034;-69
2021/09/30 11:54:49;;;;;;;3.97;1.30;;;20.80;59.90;;;;;;4991216;28;20026;-70
2021/09/30 11:57:27;;;;;;;8.55;2.60;;;20.40;61.10;;;;;;4990835;28;20125;-71
2021/09/30 12:00:07;;;;;;;;;;;20.30;61.20;;;;;;4991414;28;20037;-70
2021/09/30 12:02:32;;;;;;;11.07;1.60;;;19.80;61.40;;;;;;4989957;28;20001;-70
2021/09/30 12:04:58;;;;;;;9.38;1.73;;;19.60;60.70;;;;;;4991167;28;20577;-70
2021/09/30 12:07:26;;;;;;;7.57;1.40;;;19.70;60.60;;;;;;4994385;28;20034;-69
2021/09/30 12:09:57;;;;;;;9.18;1.45;;;19.70;60.20;;;;;;4994864;28;20138;-69
2021/09/30 12:12:36;;;;;;;6.72;1.35;;;19.60;60.30;;;;;;4994355;28;20037;-68
2021/09/30 12:15:05;;;;;;;7.90;1.23;;;19.50;60.30;;;;;;4993914;28;20031;-68
2021/09/30 12:17:35;;;;;;;8.18;2.67;;;19.50;60.40;;;;;;4994443;28;20037;-67
2021/09/30 12:20:04;;;;;;;10.57;2.47;;;19.50;61.00;;;;;;4994310;28;20057;-68
2021/09/30 12:22:39;;;;;;;9.38;2.25;;;19.70;61.00;;;;;;4994160;28;20469;-68
2021/09/30 12:25:08;;;;;;;8.35;1.63;;;19.90;61.00;;;;;;4994238;28;20053;-68
2021/09/30 12:27:37;;;;;;;10.40;1.80;;;19.50;61.70;;;;;;4974965;28;20540;-68
2021/09/30 12:30:37;;;;;;;11.20;2.00;;;19.50;62.20;;;;;;4990432;28;20364;-68
2021/09/30 12:33:04;;;;;;;11.00;1.60;;;19.40;62.20;;;;;;4994144;28;20034;-68
2021/09/30 12:35:32;;;;;;;12.13;1.92;;;19.00;62.70;;;;;;4993996;28;20045;-68
2021/09/30 12:38:04;;;;;;;7.32;1.30;;;18.70;62.80;;;;;;4994114;28;20265;-68
2021/09/30 12:41:05;;;;;;;5.07;1.30;;;18.60;63.60;;;;;;4994314;28;20034;-69
2021/09/30 12:43:32;;;;;;;4.05;1.13;;;18.60;64.10;;;;;;4992353;28;20150;-68
2021/09/30 12:46:04;;;;;;;10.38;1.20;;;18.70;64.10;;;;;;4993104;28;20038;-69
2021/09/30 12:48:32;;;;;;;10.10;1.45;;;18.80;63.60;;;;;;4994092;28;20050;-69
2021/09/30 12:51:02;;;;;;;8.73;1.50;;;18.80;63.80;;;;;;4994001;28;20027;-69
2021/09/30 12:53:29;;;;;;;8.75;1.88;;;18.70;63.90;;;;;;4993809;28;20475;-69
2021/09/30 12:56:06;;;;;;;9.52;1.80;;;18.70;64.40;;;;;;4993654;28;20423;-68
2021/09/30 12:58:46;;;;;;;9.32;1.80;;;18.10;63.10;;;;;;4993654;28;20472;-69
2021/09/30 13:01:26;;;;;;;7.13;1.75;;;18.20;64.50;;;;;;4993549;28;20077;-68
2021/09/30 13:04:25;;;;;;;7.72;1.52;;;18.10;63.90;;;;;;4994035;28;20653;-68
2021/09/30 13:06:59;;;;;;;12.40;2.55;;;18.00;64.50;;;;;;4992495;28;20038;-69
2021/09/30 13:09:33;;;;;;;10.23;2.22;;;18.30;64.80;;;;;;4993735;28;20112;-68
2021/09/30 13:12:14;;;;;;;6.32;1.67;;;18.10;63.70;;;;;;4993612;28;20046;-69
2021/09/30 13:14:53;;;;;;;5.00;1.77;;;17.90;64.30;;;;;;4992352;28;20105;-68
2021/09/30 13:17:23;;;;;;;7.32;1.40;;;17.90;63.60;;;;;;4992761;28;20041;-68
2021/09/30 13:20:06;;;;;;;6.88;1.20;;;17.70;63.30;;;;;;4993450;28;20280;-68
2021/09/30 13:22:36;;;;;;;7.70;1.50;;;17.60;63.00;;;;;;4993141;28;20185;-68
2021/09/30 13:25:16;;;;;;;8.25;1.40;;;17.60;63.50;;;;;;4992448;28;20034;-67
2021/09/30 13:27:43;;;;;;;4.75;0.80;;;17.50;64.00;;;;;;4993515;28;20078;-68
2021/09/30 13:30:12;;;;;;;5.90;1.30;;;17.50;63.90;;;;;;4992343;28;20030;-68
2021/09/30 13:32:38;;;;;;;6.30;1.30;;;17.50;64.20;;;;;;4993083;28;20042;-67
2021/09/30 13:35:05;;;;;;;7.10;1.50;;;17.30;64.40;;;;;;4993144;28;20045;-66
2021/09/30 13:37:31;;;;;;;6.90;1.60;;;17.30;64.70;;;;;;4992634;28;20030;-68
2021/09/30 13:40:00;;;;;;;9.00;1.77;;;17.30;64.70;;;;;;4993269;28;20069;-68
2021/09/30 13:42:32;;;;;;;6.43;1.30;;;17.30;65.00;;;;;;4992130;28;20038;-69
2021/09/30 13:44:58;;;;;;;7.28;1.80;;;17.30;65.50;;;;;;4992922;28;20031;-68
2021/09/30 13:47:25;;;;;;;7.40;1.25;;;17.40;65.50;;;;;;4992919;28;20089;-68
2021/09/30 13:49:51;;;;;;;13.70;4.03;;;17.50;64.90;;;;;;4992727;28;20097;-68
2021/09/30 13:52:17;;;;;;;8.10;2.50;;;17.60;65.20;;;;;;4991456;28;20022;-69
2021/09/30 13:54:42;;;;;;;6.63;2.67;;;17.60;65.20;;;;;;4992993;28;20019;-69
2021/09/30 13:57:10;;;;;;;8.15;2.55;;;17.60;64.10;;;;;;4991375;28;20035;-70
2021/09/30 13:59:39;;;;;;;5.37;1.67;;;17.70;64.10;;;;;;4992281;28;20044;-71
2021/09/30 14:02:06;;;;;;;7.72;1.40;;;17.80;63.80;;;;;;4992638;28;20271;-70
2021/09/30 14:04:32;;;;;;;13.10;2.75;;;17.70;63.40;;;;;;4992450;28;20088;-70
2021/09/30 14:06:58;;;;;;;4.80;1.38;;;17.60;63.80;;;;;;4992915;28;20018;-69
2021/09/30 14:09:25;;;;;;;8.05;1.48;;;17.50;64.40;;;;;;4991242;28;20349;-69
2021/09/30 14:11:52;;;;;;;8.65;1.23;;;17.40;64.10;;;;;;4992028;28;20088;-70
2021/09/30 14:14:18;;;;;;;7.55;1.40;;;17.30;64.60;;;;;;4992301;28;20097;-69
2021/09/30 14:16:48;;;;;;;4.70;1.90;;;17.30;64.70;;;;;;4992322;28;20435;-69
2021/09/30 14:19:14;;;;;;;5.43;1.90;;;17.40;64.90;;;;;;4992173;28;20418;-69
2021/09/30 14:21:40;;;;;;;5.05;1.27;;;17.40;64.60;;;;;;4992682;28;20113;-69
2021/09/30 14:24:05;;;;;;;5.53;1.27;;;17.50;64.40;;;;;;4991920;28;20137;-69
2021/09/30 14:26:31;;;;;;;6.90;1.10;;;17.50;65.00;;;;;;4992261;28;20038;-70
2021/09/30 14:28:57;;;;;;;9.43;1.67;;;17.60;65.30;;;;;;4990404;28;20041;-69
2021/09/30 14:31:23;;;;;;;8.07;1.80;;;17.60;65.20;;;;;;4990461;28;20044;-69
2021/09/30 14:33:48;;;;;;;6.90;1.55;;;17.60;65.20;;;;;;4992158;28;20030;-69
2021/09/30 14:36:14;;;;;;;8.32;2.17;;;17.60;65.70;;;;;;4991834;28;20030;-69
2021/09/30 14:38:40;;;;;;;7.97;1.50;;;17.40;65.70;;;;;;4990756;28;20269;-68
2021/09/30 14:41:06;;;;;;;9.75;1.55;;;17.40;66.20;;;;;;4991704;28;20093;-69
2021/09/30 14:43:37;;;;;;;7.18;1.60;;;17.50;65.40;;;;;;4991522;28;20035;-69
2021/09/30 14:46:05;;;;;;;5.93;1.58;;;17.40;65.60;;;;;;4992176;28;20031;-70
2021/09/30 14:48:32;;;;;;;8.55;1.60;;;17.50;66.10;;;;;;4990695;28;20070;-69
2021/09/30 14:50:58;;;;;;;10.35;2.00;;;17.40;65.10;;;;;;4991408;28;20034;-70
2021/09/30 14:53:24;;;;;;;13.20;1.88;;;17.30;64.90;;;;;;4991498;28;20026;-69
2021/09/30 14:55:50;;;;;;;10.02;4.25;;;17.30;64.80;;;;;;4991333;28;20510;-70
2021/09/30 14:58:16;;;;;;;12.80;3.13;;;17.20;65.00;;;;;;4991467;28;20096;-69
2021/09/30 15:00:42;;;;;;;12.02;2.17;;;17.30;65.40;;;;;;4991807;28;20663;-69
2021/09/30 15:03:07;;;;;;;13.02;2.42;;;17.20;65.30;;;;;;4991224;28;20035;-69
2021/09/30 15:05:36;;;;;;;7.53;1.95;;;17.20;65.40;;;;;;4991283;28;20031;-69
2021/09/30 15:08:02;;;;;;;6.53;1.52;;;17.30;65.70;;;;;;4991380;28;20030;-70
2021/09/30 15:10:29;;;;;;;10.85;2.67;;;17.30;65.50;;;;;;4989596;28;20465;-69
2021/09/30 15:12:55;;;;;;;6.32;1.77;;;17.20;65.90;;;;;;4991612;28;20596;-70
2021/09/30 15:15:21;;;;;;;5.45;1.60;;;17.10;66.00;;;;;;4991181;28;20062;-70
2021/09/30 15:17:55;;;;;;;8.02;1.80;;;17.10;66.20;;;;;;4990137;28;20034;-70
2021/09/30 15:23:27;;;;;;;4.15;1.95;;;17.00;66.70;;;;;;4991259;28;20026;-69
2021/09/30 15:25:52;;;;;;;8.32;2.08;;;17.10;67.10;;;;;;4991053;28;20030;-69
2021/09/30 15:28:18;;;;;;;9.77;2.20;;;17.10;67.00;;;;;;4991190;28;20029;-69
2021/09/30 15:30:45;;;;;;;7.63;1.50;;;16.90;66.60;;;;;;4991596;28;20045;-69
2021/09/30 15:33:12;;;;;;;8.45;1.70;;;16.90;66.70;;;;;;4991214;28;20046;-70
2021/09/30 15:35:39;;;;;;;7.93;2.03;;;16.80;66.30;;;;;;4990827;28;20121;-69
2021/09/30 15:38:05;;;;;;;11.35;2.47;;;16.80;66.70;;;;;;4991331;28;20049;-69
2021/09/30 15:40:31;;;;;;;9.73;1.63;;;16.90;66.80;;;;;;4991468;28;20050;-68
2021/09/30 15:42:57;;;;;;;9.50;2.80;;;16.90;67.00;;;;;;4995743;28;20069;-69